Time;durP1;ratioP1;P1;durP2;ratioP2;P2;SDS_P1;SDS_P2;PMS_P1;PMS_P2;Temp;Humidity;BMP_temperature;BMP_pressure;BME280_temperature;BME280_humidity;BME280_pressure;Samples;Min_cycle;Max_cycle;Signal;HPM_P1;HPM_P2
2024/02/09 00:01:37;;;;;;;4.97;4.15;;;2.40;99.90;;;;;;5141424;27;20127;-64
2024/02/09 00:04:03;;;;;;;5.28;4.32;;;2.30;99.90;;;;;;5129475;27;20030;-64
2024/02/09 00:06:30;;;;;;;5.30;4.72;;;2.30;99.90;;;;;;5139534;27;20167;-63
2024/02/09 00:08:55;;;;;;;5.45;4.45;;;2.30;99.90;;;;;;5142042;27;20112;-64
2024/02/09 00:11:21;;;;;;;4.65;3.90;;;2.40;99.90;;;;;;5138663;27;20068;-64
2024/02/09 00:13:47;;;;;;;5.05;4.55;;;2.40;99.90;;;;;;5143443;27;20410;-64
2024/02/09 00:16:13;;;;;;;7.88;4.65;;;2.40;99.90;;;;;;5139935;27;20501;-64
2024/02/09 00:18:40;;;;;;;5.90;4.40;;;2.40;99.90;;;;;;5133400;27;20027;-64
2024/02/09 00:21:06;;;;;;;5.38;4.22;;;2.30;99.90;;;;;;5142406;27;20035;-64
2024/02/09 00:23:32;;;;;;;5.78;4.72;;;2.30;99.90;;;;;;5143524;27;20041;-63
2024/02/09 00:26:00;;;;;;;4.63;4.00;;;2.40;99.90;;;;;;5146021;27;20042;-64
2024/02/09 00:28:27;;;;;;;4.97;4.43;;;2.40;99.90;;;;;;5141686;27;20525;-64
2024/02/09 00:30:54;;;;;;;5.88;4.32;;;2.30;99.90;;;;;;5137505;27;20047;-64
2024/02/09 00:33:20;;;;;;;5.07;4.10;;;2.40;99.90;;;;;;5140155;27;20529;-64
2024/02/09 00:35:46;;;;;;;4.78;4.28;;;2.30;99.90;;;;;;5144465;27;20122;-63
2024/02/09 00:38:15;;;;;;;4.10;3.47;;;2.30;99.90;;;;;;5130451;27;20407;-63
2024/02/09 00:40:40;;;;;;;4.93;3.85;;;2.30;99.90;;;;;;5139803;27;20069;-64
2024/02/09 00:43:06;;;;;;;4.28;3.88;;;2.40;99.90;;;;;;5144451;27;20574;-64
2024/02/09 00:45:36;;;;;;;4.15;3.75;;;2.30;99.90;;;;;;5141905;27;20658;-64
2024/02/09 00:48:08;;;;;;;4.25;3.50;;;2.40;99.90;;;;;;5142936;27;20080;-64
2024/02/09 00:50:34;;;;;;;4.13;3.67;;;2.30;99.90;;;;;;5142059;27;20042;-63
2024/02/09 00:53:00;;;;;;;5.05;4.07;;;2.40;99.90;;;;;;5133754;27;20033;-63
2024/02/09 00:55:29;;;;;;;3.90;3.45;;;2.40;99.90;;;;;;5138334;27;20038;-63
2024/02/09 00:57:58;;;;;;;4.97;3.78;;;2.30;99.90;;;;;;5141807;27;20577;-64
2024/02/09 01:00:25;;;;;;;3.97;3.47;;;2.40;99.90;;;;;;5136847;27;20100;-65
2024/02/09 01:02:51;;;;;;;4.18;3.50;;;2.40;99.90;;;;;;5112789;27;20931;-63
2024/02/09 01:05:18;;;;;;;4.10;3.50;;;2.30;99.90;;;;;;5121177;27;20039;-63
2024/02/09 01:07:44;;;;;;;3.90;3.47;;;2.40;99.90;;;;;;5135636;27;20428;-64
2024/02/09 01:10:11;;;;;;;4.32;3.88;;;2.30;99.90;;;;;;5134102;27;20504;-64
2024/02/09 02:46:13;;;;;;;5.82;4.03;;;2.70;99.90;;;;;;5147000;27;20103;-63
2024/02/09 03:05:20;;;;;;;4.78;3.80;;;2.50;99.90;;;;;;5143841;27;20062;-63
2024/02/09 03:07:50;;;;;;;4.57;3.80;;;2.60;99.90;;;;;;5145873;27;20509;-62
2024/02/09 03:10:16;;;;;;;4.30;3.60;;;2.70;99.90;;;;;;5139893;27;20506;-63
2024/02/09 03:12:43;;;;;;;4.88;4.20;;;2.60;99.90;;;;;;5146873;27;20040;-63
2024/02/09 03:15:09;;;;;;;4.60;3.70;;;2.60;99.90;;;;;;5145480;27;20038;-63
2024/02/09 03:17:38;;;;;;;4.00;3.20;;;2.60;99.90;;;;;;5146291;27;20096;-63
2024/02/09 03:20:06;;;;;;;4.63;3.92;;;2.70;99.90;;;;;;5137597;27;20419;-63
2024/02/09 03:22:33;;;;;;;4.40;3.30;;;2.60;99.90;;;;;;5117919;27;20103;-63
2024/02/09 03:25:02;;;;;;;5.32;3.67;;;2.60;99.90;;;;;;5142551;27;20038;-63
2024/02/09 03:27:39;;;;;;;4.63;3.80;;;2.80;99.90;;;;;;5142781;27;20522;-63
2024/02/09 03:30:06;;;;;;;5.35;3.92;;;2.60;99.90;;;;;;5133965;27;20038;-63
2024/02/09 03:32:34;;;;;;;5.43;4.25;;;2.80;99.90;;;;;;5142081;27;20620;-63
2024/02/09 03:35:02;;;;;;;4.88;4.03;;;2.70;99.90;;;;;;5138493;27;20341;-62
2024/02/09 03:37:30;;;;;;;4.28;3.65;;;2.70;99.90;;;;;;5132641;27;20046;-63
2024/02/09 03:40:03;;;;;;;4.63;3.67;;;2.80;99.90;;;;;;5142041;27;20042;-63
2024/02/09 03:42:30;;;;;;;4.68;3.92;;;2.60;99.90;;;;;;5138904;27;20039;-63
2024/02/09 03:44:57;;;;;;;6.45;4.03;;;2.70;99.90;;;;;;5138596;27;20042;-63
2024/02/09 03:47:26;;;;;;;12.77;4.57;;;2.80;99.90;;;;;;5135613;27;20051;-63
2024/02/09 03:49:56;;;;;;;11.02;4.32;;;2.90;99.90;;;;;;5137091;27;20102;-63
2024/02/09 03:52:23;;;;;;;4.47;3.80;;;2.80;99.90;;;;;;5137856;27;20055;-62
2024/02/09 03:54:51;;;;;;;4.63;3.92;;;2.80;99.90;;;;;;5145524;27;20081;-62
2024/02/09 03:57:27;;;;;;;6.13;4.32;;;2.90;99.90;;;;;;5139247;27;20047;-63
2024/02/09 03:59:53;;;;;;;4.45;3.78;;;2.90;99.90;;;;;;5140176;27;20701;-62
2024/02/09 04:02:20;;;;;;;5.45;3.67;;;2.70;99.90;;;;;;5143941;27;20697;-62
2024/02/09 04:04:49;;;;;;;4.13;3.25;;;2.90;99.90;;;;;;5139692;27;20145;-62
2024/02/09 04:07:20;;;;;;;4.85;3.65;;;2.80;99.90;;;;;;5143280;27;20131;-62
2024/02/09 04:09:46;;;;;;;4.75;3.53;;;2.80;99.90;;;;;;5138571;27;20050;-62
2024/02/09 04:12:12;;;;;;;5.18;3.72;;;2.80;99.90;;;;;;5144109;27;20042;-62
2024/02/09 04:14:38;;;;;;;4.95;3.75;;;2.80;99.90;;;;;;5142768;27;20099;-62
2024/02/09 04:17:06;;;;;;;5.50;4.07;;;2.90;99.90;;;;;;5134382;27;20145;-62
2024/02/09 04:19:39;;;;;;;4.72;3.80;;;2.80;99.90;;;;;;5131719;27;20537;-62
2024/02/09 04:22:10;;;;;;;5.78;4.00;;;2.80;99.90;;;;;;5140959;27;20030;-62
2024/02/09 04:24:38;;;;;;;4.97;3.88;;;2.80;99.90;;;;;;5145046;27;20403;-62
2024/02/09 04:27:05;;;;;;;5.50;3.75;;;2.80;99.90;;;;;;5139770;27;20034;-62
2024/02/09 04:29:32;;;;;;;5.07;4.00;;;3.00;99.90;;;;;;5134008;27;20050;-62
2024/02/09 04:32:00;;;;;;;4.53;3.45;;;2.90;99.90;;;;;;5143393;27;20388;-62
2024/02/09 04:34:26;;;;;;;5.30;3.95;;;3.00;99.90;;;;;;5143885;27;20093;-62
2024/02/09 04:36:55;;;;;;;4.78;3.80;;;3.00;99.90;;;;;;5138653;27;20485;-62
2024/02/09 04:39:20;;;;;;;;;;;2.80;99.90;;;;;;5142972;27;20075;-62
2024/02/09 04:41:50;;;;;;;6.38;4.10;;;2.90;99.90;;;;;;5122524;27;20374;-62
2024/02/09 04:44:16;;;;;;;7.00;3.95;;;2.90;99.90;;;;;;5145731;27;20103;-62
2024/02/09 04:46:45;;;;;;;6.30;4.55;;;2.80;99.90;;;;;;5137512;27;20486;-62
2024/02/09 04:49:11;;;;;;;6.45;4.63;;;3.00;99.90;;;;;;5143287;27;20248;-62
2024/02/09 04:51:44;;;;;;;5.70;4.40;;;2.90;99.90;;;;;;5144378;27;20045;-62
2024/02/09 04:54:11;;;;;;;5.60;4.38;;;2.90;99.90;;;;;;5135562;27;20118;-62
2024/02/09 04:56:37;;;;;;;5.10;3.88;;;3.10;99.90;;;;;;5138610;27;20122;-63
2024/02/09 04:59:04;;;;;;;5.82;4.35;;;2.90;99.90;;;;;;5129387;27;20043;-61
2024/02/09 05:01:32;;;;;;;7.60;5.55;;;2.90;99.90;;;;;;5141517;27;20042;-62
2024/02/09 05:03:59;;;;;;;9.55;5.28;;;3.10;99.90;;;;;;5142893;27;20457;-62
2024/02/09 05:06:28;;;;;;;9.20;5.57;;;3.00;99.90;;;;;;5143484;27;20049;-62
2024/02/09 05:08:56;;;;;;;9.27;5.80;;;3.00;99.90;;;;;;5143065;27;20507;-62
2024/02/09 05:11:22;;;;;;;9.60;6.00;;;3.10;99.90;;;;;;5142003;27;20051;-62
2024/02/09 05:13:51;;;;;;;8.32;5.90;;;3.20;99.90;;;;;;5135655;27;20081;-61
2024/02/09 05:16:17;;;;;;;;;;;3.20;99.90;;;;;;5137684;27;20564;-65
2024/02/09 05:18:43;;;;;;;9.52;6.57;;;3.10;99.90;;;;;;5137493;27;19923;-62
2024/02/09 05:21:09;;;;;;;10.25;6.93;;;3.10;99.90;;;;;;5139709;27;20034;-61
2024/02/09 05:23:34;;;;;;;9.82;6.85;;;3.10;99.90;;;;;;5138441;27;20696;-62
2024/02/09 05:26:00;;;;;;;11.35;7.53;;;3.10;99.90;;;;;;5125050;27;20550;-62
2024/02/09 05:28:26;;;;;;;10.43;7.10;;;3.20;99.90;;;;;;5138714;27;20134;-62
2024/02/09 05:30:52;;;;;;;14.00;8.85;;;3.00;99.90;;;;;;5143604;27;20034;-63
2024/02/09 05:33:18;;;;;;;14.90;9.57;;;3.10;99.90;;;;;;5141380;27;20057;-62
2024/02/09 05:35:44;;;;;;;15.40;10.20;;;3.20;99.90;;;;;;5141484;27;20073;-62
2024/02/09 05:38:11;;;;;;;13.38;9.18;;;3.00;99.90;;;;;;5115189;27;20039;-62
2024/02/09 05:40:37;;;;;;;14.93;9.90;;;3.10;99.90;;;;;;5134258;27;20039;-62
2024/02/09 05:43:03;;;;;;;18.77;10.13;;;3.10;99.90;;;;;;5130358;27;20123;-61
2024/02/09 05:45:30;;;;;;;18.73;10.10;;;3.20;99.90;;;;;;5142069;27;20066;-62
2024/02/09 05:47:56;;;;;;;18.85;10.40;;;3.10;99.90;;;;;;5128905;27;20059;-62
2024/02/09 05:50:22;;;;;;;18.05;11.15;;;3.20;99.90;;;;;;5120003;27;20051;-61
2024/02/09 05:52:48;;;;;;;18.33;11.18;;;3.30;99.90;;;;;;5142897;27;20464;-61
2024/02/09 05:55:15;;;;;;;19.00;11.07;;;3.30;99.90;;;;;;5139034;27;20118;-62
2024/02/09 05:57:42;;;;;;;21.58;12.10;;;3.20;99.90;;;;;;5140090;27;20054;-62
2024/02/09 06:00:14;;;;;;;20.20;11.98;;;3.30;99.90;;;;;;5117659;27;20038;-62
2024/02/09 06:02:41;;;;;;;20.13;10.95;;;3.30;99.90;;;;;;5138242;27;20076;-61
2024/02/09 06:05:07;;;;;;;19.27;10.82;;;3.30;99.90;;;;;;5116032;27;20044;-61
2024/02/09 06:07:34;;;;;;;16.35;9.98;;;3.20;99.90;;;;;;5140067;27;20046;-62
2024/02/09 06:10:00;;;;;;;17.98;9.95;;;3.30;99.90;;;;;;5144913;27;20034;-62
2024/02/09 06:12:26;;;;;;;14.70;9.35;;;3.30;99.90;;;;;;5142203;27;20046;-62
2024/02/09 06:14:53;;;;;;;15.07;9.00;;;3.30;99.90;;;;;;5141071;27;20039;-62
2024/02/09 06:17:19;;;;;;;14.27;9.45;;;3.40;99.90;;;;;;5140811;27;20684;-62
2024/02/09 06:19:45;;;;;;;14.35;9.57;;;3.30;99.90;;;;;;5120641;27;20039;-62
2024/02/09 06:22:12;;;;;;;16.88;10.20;;;3.40;99.90;;;;;;5143341;27;20034;-62
2024/02/09 06:24:39;;;;;;;13.75;9.13;;;3.30;99.90;;;;;;5140346;27;20503;-62
2024/02/09 06:27:04;;;;;;;17.65;10.60;;;3.60;99.90;;;;;;5143198;27;20506;-62
2024/02/09 06:29:30;;;;;;;16.77;10.10;;;3.40;99.90;;;;;;5142167;27;20046;-62
2024/02/09 06:31:59;;;;;;;17.17;9.98;;;3.60;99.90;;;;;;5142846;27;20514;-61
2024/02/09 06:34:24;;;;;;;18.95;10.98;;;3.70;99.90;;;;;;5142584;27;21123;-62
2024/02/09 06:36:50;;;;;;;19.80;12.15;;;3.60;99.90;;;;;;5144205;27;20099;-62
2024/02/09 06:39:16;;;;;;;23.33;11.20;;;3.40;99.90;;;;;;5144494;27;20526;-62
2024/02/09 06:41:42;;;;;;;18.08;10.73;;;3.50;99.90;;;;;;5143949;27;20031;-62
2024/02/09 06:44:08;;;;;;;21.88;11.82;;;3.50;99.90;;;;;;5141120;27;20027;-63
2024/02/09 06:46:33;;;;;;;21.83;13.45;;;3.50;99.90;;;;;;5143918;27;20046;-62
2024/02/09 06:49:00;;;;;;;20.00;11.75;;;3.50;99.90;;;;;;5143723;27;20072;-62
2024/02/09 06:51:26;;;;;;;20.98;12.38;;;3.50;99.90;;;;;;5142762;27;20573;-62
2024/02/09 06:53:54;;;;;;;23.23;12.43;;;3.50;99.90;;;;;;5141954;27;20519;-62
2024/02/09 06:56:21;;;;;;;20.30;12.35;;;3.50;99.90;;;;;;5144390;27;20046;-62
2024/02/09 06:58:47;;;;;;;23.75;13.10;;;3.60;99.90;;;;;;5142046;27;20047;-62
2024/02/09 07:01:13;;;;;;;20.48;12.57;;;3.60;99.90;;;;;;5140998;27;20052;-62
2024/02/09 07:03:40;;;;;;;23.60;12.30;;;3.60;99.90;;;;;;5138895;27;20502;-62
2024/02/09 07:06:07;;;;;;;24.35;13.55;;;3.70;99.90;;;;;;5141569;27;20491;-63
2024/02/09 07:08:39;;;;;;;21.38;11.25;;;3.80;99.90;;;;;;5142933;27;20103;-62
2024/02/09 07:11:12;;;;;;;18.52;10.65;;;3.70;99.90;;;;;;5142236;27;20521;-62
2024/02/09 07:13:39;;;;;;;21.13;11.82;;;3.70;99.90;;;;;;5144266;27;20123;-62
2024/02/09 07:16:06;;;;;;;20.40;11.13;;;3.90;99.90;;;;;;5142319;27;20048;-62
2024/02/09 07:18:38;;;;;;;21.42;12.07;;;3.60;99.90;;;;;;5142667;27;20049;-62
2024/02/09 07:21:05;;;;;;;23.40;12.48;;;3.90;99.90;;;;;;5143023;27;20038;-62
2024/02/09 07:23:31;;;;;;;20.45;11.77;;;3.90;99.90;;;;;;5142602;27;20039;-62
2024/02/09 07:25:57;;;;;;;18.13;10.98;;;4.00;99.90;;;;;;5143317;27;20383;-62
2024/02/09 07:28:23;;;;;;;20.65;11.90;;;3.90;99.90;;;;;;5143021;27;20676;-62
2024/02/09 07:30:49;;;;;;;21.17;11.45;;;3.90;99.90;;;;;;5142642;27;20082;-62
2024/02/09 07:33:15;;;;;;;17.60;10.32;;;3.90;99.90;;;;;;5143617;27;20171;-62
2024/02/09 07:35:46;;;;;;;19.38;10.55;;;3.90;99.90;;;;;;5123043;27;20369;-63
2024/02/09 07:38:12;;;;;;;15.65;9.15;;;3.90;99.90;;;;;;5140651;27;20072;-62
2024/02/09 07:40:38;;;;;;;16.58;9.68;;;4.10;99.90;;;;;;5143456;27;20038;-62
2024/02/09 07:43:04;;;;;;;16.98;9.38;;;4.00;99.90;;;;;;5122771;27;20038;-62
2024/02/09 07:45:35;;;;;;;18.33;10.15;;;4.10;99.90;;;;;;5141512;27;20494;-61
2024/02/09 07:48:01;;;;;;;15.55;9.20;;;4.20;99.90;;;;;;5143396;27;20876;-62
2024/02/09 07:50:27;;;;;;;16.30;9.07;;;4.20;99.90;;;;;;5142125;27;20414;-62
2024/02/09 07:52:53;;;;;;;14.52;8.40;;;4.30;99.90;;;;;;5142849;27;20035;-62
2024/02/09 07:55:23;;;;;;;14.35;8.10;;;4.20;99.90;;;;;;5136954;27;20615;-62
2024/02/09 07:57:49;;;;;;;13.60;8.55;;;4.20;99.90;;;;;;5122043;27;20077;-63
2024/02/09 08:00:18;;;;;;;15.43;8.43;;;4.40;99.90;;;;;;5141474;27;20459;-62
2024/02/09 08:02:44;;;;;;;;;;;4.30;99.90;;;;;;5142121;27;20038;-63
2024/02/09 08:05:17;;;;;;;14.95;8.40;;;4.40;99.90;;;;;;5135829;27;20093;-62
2024/02/09 08:07:45;;;;;;;13.18;7.85;;;4.40;99.90;;;;;;5140903;27;20046;-61
2024/02/09 08:10:13;;;;;;;13.63;8.27;;;4.40;99.90;;;;;;5140564;27;20816;-61
2024/02/09 08:12:42;;;;;;;14.52;8.52;;;4.30;99.90;;;;;;5138601;27;20850;-62
2024/02/09 08:15:12;;;;;;;15.02;8.40;;;4.50;99.90;;;;;;5136928;27;20046;-62
2024/02/09 08:17:39;;;;;;;16.90;9.70;;;4.40;99.90;;;;;;5135267;27;20039;-62
2024/02/09 08:20:08;;;;;;;16.33;9.02;;;4.60;99.90;;;;;;5121845;27;20046;-62
2024/02/09 08:22:34;;;;;;;18.60;9.13;;;4.50;99.90;;;;;;5139342;27;20446;-61
2024/02/09 08:25:00;;;;;;;15.85;8.10;;;4.60;99.90;;;;;;5140837;27;20061;-62
2024/02/09 08:27:27;;;;;;;17.15;8.95;;;4.70;99.90;;;;;;5139453;27;20074;-62
2024/02/09 08:29:56;;;;;;;17.10;8.75;;;4.70;99.90;;;;;;5141941;27;20038;-61
2024/02/09 08:32:24;;;;;;;16.45;8.93;;;4.70;99.90;;;;;;5140919;27;20049;-62
2024/02/09 08:34:50;;;;;;;17.52;9.07;;;4.80;99.90;;;;;;5139808;27;20038;-62
2024/02/09 08:37:18;;;;;;;16.42;9.30;;;4.70;99.90;;;;;;5135934;27;20548;-62
2024/02/09 08:39:46;;;;;;;16.35;8.80;;;4.80;99.90;;;;;;5140847;27;20035;-61
2024/02/09 08:42:15;;;;;;;16.13;9.88;;;5.00;99.90;;;;;;5140801;27;20039;-61
2024/02/09 08:44:41;;;;;;;;;;;5.00;99.90;;;;;;5141267;27;20114;-62
2024/02/09 08:47:10;;;;;;;15.82;8.45;;;5.00;99.90;;;;;;5113822;27;19998;-62
2024/02/09 08:49:35;;;;;;;16.00;8.20;;;5.10;99.90;;;;;;5118396;27;20478;-61
2024/02/09 08:52:01;;;;;;;16.88;8.85;;;5.10;99.90;;;;;;5117872;27;20413;-62
2024/02/09 08:54:28;;;;;;;14.57;8.25;;;5.00;99.90;;;;;;5127356;27;20030;-62
2024/02/09 08:56:56;;;;;;;15.02;8.82;;;5.10;99.90;;;;;;5135843;27;20263;-62
2024/02/09 08:59:22;;;;;;;19.88;11.00;;;5.20;99.90;;;;;;5136516;27;20073;-62
2024/02/09 09:01:48;;;;;;;16.40;10.95;;;5.10;99.90;;;;;;5137781;27;21250;-61
2024/02/09 09:04:14;;;;;;;17.15;10.57;;;5.30;99.90;;;;;;5141357;27;20034;-62
2024/02/09 09:06:40;;;;;;;18.45;10.80;;;5.20;99.90;;;;;;5141203;27;20554;-62
2024/02/09 09:09:06;;;;;;;17.92;9.63;;;5.30;99.90;;;;;;5139399;27;21540;-62
2024/02/09 09:11:31;;;;;;;20.20;11.27;;;5.40;99.90;;;;;;5140968;27;20042;-62
2024/02/09 09:13:57;;;;;;;19.60;9.98;;;5.40;99.90;;;;;;5138697;27;20592;-62
2024/02/09 09:16:23;;;;;;;16.65;9.43;;;5.50;99.90;;;;;;5139872;27;20827;-62
2024/02/09 09:18:50;;;;;;;17.70;10.45;;;5.50;99.90;;;;;;5138700;27;20126;-63
2024/02/09 09:21:16;;;;;;;20.45;11.40;;;5.60;99.90;;;;;;5138598;27;20038;-64
2024/02/09 09:23:42;;;;;;;24.83;13.18;;;5.70;99.90;;;;;;5139750;27;20379;-62
2024/02/09 09:26:09;;;;;;;29.95;13.68;;;5.60;99.90;;;;;;5140145;27;20106;-64
2024/02/09 09:28:35;;;;;;;29.83;16.70;;;5.80;99.90;;;;;;5139277;27;20043;-63
2024/02/09 09:31:01;;;;;;;23.73;12.40;;;5.80;99.90;;;;;;5141454;27;20490;-63
2024/02/09 09:33:27;;;;;;;26.25;14.02;;;5.70;99.90;;;;;;5138670;27;20096;-63
2024/02/09 09:35:53;;;;;;;26.80;14.50;;;6.00;99.90;;;;;;5139960;27;20038;-63
2024/02/09 09:38:22;;;;;;;24.77;14.60;;;6.00;99.90;;;;;;5141338;27;20035;-63
2024/02/09 09:40:52;;;;;;;26.02;13.55;;;6.00;99.90;;;;;;5140790;27;20150;-62
2024/02/09 09:43:21;;;;;;;26.65;14.80;;;6.20;99.90;;;;;;5140012;27;20041;-63
2024/02/09 09:45:57;;;;;;;28.33;15.65;;;6.30;99.90;;;;;;5139740;27;20039;-63
2024/02/09 09:48:24;;;;;;;38.53;20.95;;;6.20;99.90;;;;;;5140301;27;20526;-62
2024/02/09 09:50:52;;;;;;;32.38;18.67;;;6.40;99.90;;;;;;5121381;27;20504;-63
2024/02/09 09:53:25;;;;;;;27.20;15.27;;;6.50;99.90;;;;;;5140507;27;20544;-61
2024/02/09 09:55:53;;;;;;;33.80;16.13;;;6.50;99.90;;;;;;5141780;27;20049;-61
2024/02/09 09:58:20;;;;;;;28.70;14.68;;;6.60;99.90;;;;;;5139063;27;20503;-60
2024/02/09 10:00:48;;;;;;;33.97;18.42;;;6.50;99.90;;;;;;5137493;27;20045;-61
2024/02/09 10:03:15;;;;;;;34.88;18.55;;;6.80;99.90;;;;;;5139641;27;20042;-63
2024/02/09 10:05:41;;;;;;;31.48;17.05;;;6.80;99.90;;;;;;5138433;27;20499;-61
2024/02/09 10:08:08;;;;;;;34.80;16.80;;;7.00;99.90;;;;;;5140044;27;20054;-61
2024/02/09 10:10:36;;;;;;;36.70;17.75;;;7.00;99.90;;;;;;5138331;27;20041;-61
2024/02/09 10:13:12;;;;;;;32.60;16.58;;;7.20;99.90;;;;;;5139685;27;20479;-61
2024/02/09 10:15:41;;;;;;;34.53;16.83;;;7.10;99.90;;;;;;5120141;27;20042;-61
2024/02/09 10:18:10;;;;;;;39.00;19.65;;;7.30;99.90;;;;;;5137877;27;20091;-63
2024/02/09 10:20:46;;;;;;;39.58;17.90;;;7.30;99.90;;;;;;5138076;27;20079;-63
2024/02/09 10:23:19;;;;;;;37.30;17.88;;;7.40;99.90;;;;;;5139259;27;20035;-63
2024/02/09 10:25:46;;;;;;;37.78;18.73;;;7.50;99.90;;;;;;5138366;27;20034;-61
2024/02/09 10:28:12;;;;;;;36.55;17.27;;;7.40;99.90;;;;;;5139204;27;20379;-61
2024/02/09 10:30:38;;;;;;;31.42;16.60;;;7.50;99.90;;;;;;5140294;27;20122;-61
2024/02/09 10:33:06;;;;;;;36.80;16.80;;;7.60;99.90;;;;;;5141018;27;20114;-61
2024/02/09 10:35:34;;;;;;;33.28;16.58;;;7.50;99.90;;;;;;5138895;27;20038;-61
2024/02/09 10:38:00;;;;;;;33.97;15.82;;;7.60;99.90;;;;;;5138739;27;20245;-61
2024/02/09 10:40:26;;;;;;;33.00;15.52;;;7.80;99.90;;;;;;5140273;27;20039;-60
2024/02/09 10:42:53;;;;;;;35.72;16.50;;;7.80;99.90;;;;;;5138513;27;20038;-60
2024/02/09 10:45:19;;;;;;;30.98;15.48;;;7.80;99.90;;;;;;5141134;27;20045;-61
2024/02/09 10:47:48;;;;;;;36.28;16.15;;;7.90;99.90;;;;;;5140130;27;20046;-61
2024/02/09 10:50:15;;;;;;;26.70;13.77;;;7.90;99.90;;;;;;5141566;27;20502;-61
2024/02/09 10:52:50;;;;;;;23.45;11.88;;;8.00;99.90;;;;;;5141593;27;20473;-61
2024/02/09 10:55:33;;;;;;;21.40;10.30;;;8.20;99.90;;;;;;5141300;27;20533;-61
2024/02/09 10:57:59;;;;;;;24.00;10.77;;;8.50;99.90;;;;;;5139928;27;20038;-61
2024/02/09 11:00:27;;;;;;;17.65;9.15;;;8.70;99.90;;;;;;5140601;27;20378;-61
2024/02/09 11:02:53;;;;;;;15.50;8.07;;;8.80;99.90;;;;;;5141593;27;20200;-61
2024/02/09 11:05:19;;;;;;;14.65;8.10;;;9.00;99.90;;;;;;5143189;27;20038;-61
2024/02/09 11:07:47;;;;;;;16.92;7.75;;;9.30;99.90;;;;;;5140394;27;20405;-60
2024/02/09 11:10:19;;;;;;;18.43;8.30;;;9.20;99.90;;;;;;5137615;27;20049;-61
2024/02/09 11:12:57;;;;;;;15.95;7.75;;;9.40;99.90;;;;;;5140102;27;20039;-61
2024/02/09 11:15:23;;;;;;;16.13;8.13;;;9.50;99.90;;;;;;5141374;27;20051;-60
2024/02/09 11:17:50;;;;;;;19.77;8.88;;;9.60;99.90;;;;;;5141832;27;20107;-60
2024/02/09 11:20:17;;;;;;;16.83;8.48;;;9.50;99.90;;;;;;5141671;27;20023;-61
2024/02/09 11:22:47;;;;;;;13.82;8.38;;;9.60;99.90;;;;;;5142133;27;20087;-60
2024/02/09 11:25:19;;;;;;;13.25;7.40;;;9.70;99.90;;;;;;5141030;27;20455;-60
2024/02/09 11:27:50;;;;;;;14.60;8.73;;;9.70;99.90;;;;;;5141840;27;20125;-60
2024/02/09 11:30:23;;;;;;;13.60;7.05;;;9.90;99.90;;;;;;5137806;27;20034;-60
2024/02/09 11:32:49;;;;;;;17.60;7.88;;;10.00;99.90;;;;;;5140044;27;20030;-61
2024/02/09 11:35:15;;;;;;;15.68;8.45;;;10.10;99.90;;;;;;5141505;27;20046;-61
2024/02/09 11:37:45;;;;;;;13.65;7.55;;;10.10;99.90;;;;;;5141637;27;20074;-61
2024/02/09 11:40:14;;;;;;;20.15;7.55;;;10.10;99.90;;;;;;5142656;27;20042;-60
2024/02/09 11:42:39;;;;;;;20.07;8.90;;;10.30;99.90;;;;;;5136979;27;20050;-61
2024/02/09 11:45:06;;;;;;;14.10;8.40;;;10.50;99.90;;;;;;5122355;27;20038;-61
2024/02/09 11:47:32;;;;;;;14.55;8.25;;;10.50;99.90;;;;;;5140345;27;20568;-61
2024/02/09 11:49:58;;;;;;;12.20;7.53;;;10.60;99.90;;;;;;5142495;27;20474;-61
2024/02/09 11:52:24;;;;;;;14.18;7.88;;;10.90;99.90;;;;;;5140511;27;20502;-60
2024/02/09 11:54:50;;;;;;;17.92;8.00;;;11.00;99.90;;;;;;5141939;27;20126;-61
2024/02/09 11:57:15;;;;;;;15.25;8.30;;;11.20;99.90;;;;;;5140074;27;20378;-62
2024/02/09 11:59:42;;;;;;;13.65;7.72;;;11.00;99.90;;;;;;5142060;27;20046;-62
2024/02/09 12:02:08;;;;;;;12.00;7.18;;;11.20;99.90;;;;;;5120869;27;20164;-61
2024/02/09 12:04:35;;;;;;;13.82;7.20;;;11.10;99.90;;;;;;5142118;27;20575;-61
2024/02/09 12:07:00;;;;;;;13.57;7.13;;;11.20;99.90;;;;;;5141067;27;20027;-62
2024/02/09 12:09:29;;;;;;;11.93;6.95;;;11.30;99.90;;;;;;5140116;27;20049;-61
2024/02/09 12:11:55;;;;;;;;;;;11.30;99.90;;;;;;5140761;27;20042;-61
2024/02/09 12:14:21;;;;;;;8.57;5.82;;;11.50;99.90;;;;;;5140545;27;20378;-61
2024/02/09 12:16:47;;;;;;;13.45;6.60;;;11.40;99.90;;;;;;5140461;27;20046;-62
2024/02/09 12:19:13;;;;;;;12.77;6.45;;;11.60;99.90;;;;;;5141006;27;20039;-62
2024/02/09 12:21:39;;;;;;;10.70;5.68;;;11.50;99.90;;;;;;5140560;27;20030;-62
2024/02/09 12:24:09;;;;;;;13.05;5.50;;;11.30;99.90;;;;;;5140656;27;20396;-63
2024/02/09 12:26:37;;;;;;;14.02;5.97;;;11.50;99.90;;;;;;5139826;27;20039;-62
2024/02/09 12:29:13;;;;;;;7.47;5.00;;;11.60;99.90;;;;;;5141468;27;20095;-62
2024/02/09 12:31:41;;;;;;;9.40;5.47;;;11.50;99.90;;;;;;5141364;27;21043;-62
2024/02/09 12:34:08;;;;;;;10.95;5.63;;;11.60;99.90;;;;;;5141217;27;20414;-62
2024/02/09 12:36:36;;;;;;;9.63;4.88;;;11.70;99.90;;;;;;5120264;27;20121;-62
2024/02/09 12:39:07;;;;;;;7.40;4.70;;;11.60;99.90;;;;;;5123540;27;20039;-62
2024/02/09 12:41:33;;;;;;;12.95;5.38;;;11.80;99.90;;;;;;5139223;27;20681;-62
2024/02/09 12:44:07;;;;;;;10.07;5.30;;;11.70;99.90;;;;;;5141942;27;20144;-62
2024/02/09 12:46:32;;;;;;;9.35;4.60;;;11.80;99.90;;;;;;5135929;27;20038;-63
2024/02/09 12:48:59;;;;;;;7.70;4.72;;;11.80;99.90;;;;;;5140104;27;20038;-63
2024/02/09 12:51:25;;;;;;;8.88;4.82;;;12.00;99.90;;;;;;5137723;27;20121;-63
2024/02/09 12:53:52;;;;;;;9.63;4.95;;;12.00;99.90;;;;;;5138173;27;20475;-62
2024/02/09 12:56:17;;;;;;;10.18;4.55;;;12.10;99.90;;;;;;5139699;27;20093;-62
2024/02/09 12:58:44;;;;;;;10.35;4.43;;;11.90;99.90;;;;;;5140314;27;20042;-62
2024/02/09 13:01:10;;;;;;;11.98;4.85;;;12.10;99.90;;;;;;5138336;27;20038;-63
2024/02/09 13:03:38;;;;;;;7.93;4.30;;;12.10;99.90;;;;;;5139989;27;20035;-62
2024/02/09 13:06:05;;;;;;;9.63;5.10;;;11.90;99.90;;;;;;5139279;27;20031;-62
2024/02/09 13:08:32;;;;;;;9.93;5.10;;;11.90;99.90;;;;;;5138533;27;20034;-62
2024/02/09 13:10:58;;;;;;;8.70;4.43;;;11.90;99.90;;;;;;5139124;27;20085;-63
2024/02/09 13:13:25;;;;;;;10.50;4.32;;;11.80;99.90;;;;;;5135679;27;20042;-62
2024/02/09 13:15:51;;;;;;;12.02;4.53;;;11.90;99.90;;;;;;5140161;27;20554;-63
2024/02/09 13:18:17;;;;;;;9.13;4.18;;;11.80;99.90;;;;;;5140477;27;20200;-63
2024/02/09 13:20:45;;;;;;;11.13;5.15;;;11.90;99.90;;;;;;5138499;27;20047;-63
2024/02/09 13:23:11;;;;;;;10.73;4.57;;;11.80;99.90;;;;;;5137252;27;20027;-62
2024/02/09 13:25:40;;;;;;;9.00;4.75;;;11.80;99.90;;;;;;5141257;27;20544;-62
2024/02/09 13:28:07;;;;;;;7.40;4.35;;;11.60;99.90;;;;;;5133644;27;20109;-64
2024/02/09 13:30:33;;;;;;;11.55;5.50;;;11.80;99.90;;;;;;5140358;27;20368;-63
2024/02/09 13:32:59;;;;;;;6.72;4.80;;;11.80;99.90;;;;;;5139228;27;20038;-63
2024/02/09 13:35:26;;;;;;;9.35;5.28;;;11.70;99.90;;;;;;5141513;27;20445;-64
2024/02/09 13:37:53;;;;;;;12.35;5.20;;;11.50;99.90;;;;;;5136547;27;20690;-63
2024/02/09 13:40:19;;;;;;;12.07;5.10;;;11.60;99.90;;;;;;5139712;27;20042;-63
2024/02/09 13:42:47;;;;;;;10.80;4.55;;;11.80;99.90;;;;;;5136772;27;20184;-63
2024/02/09 13:45:17;;;;;;;9.00;5.35;;;11.70;99.90;;;;;;5139691;27;20026;-63
2024/02/09 13:47:43;;;;;;;11.48;5.20;;;12.00;99.90;;;;;;5133698;27;20122;-63
2024/02/09 13:50:12;;;;;;;9.45;5.15;;;12.10;99.90;;;;;;5140108;27;20128;-62
2024/02/09 13:52:39;;;;;;;11.63;5.50;;;12.00;99.90;;;;;;5137701;27;20039;-63
2024/02/09 13:55:12;;;;;;;8.70;4.45;;;12.00;99.90;;;;;;5140764;27;20137;-63
2024/02/09 13:57:45;;;;;;;9.55;4.72;;;12.10;99.90;;;;;;5137615;27;20391;-62
2024/02/09 14:00:16;;;;;;;10.25;4.50;;;12.00;99.90;;;;;;5141502;27;20126;-63
2024/02/09 14:02:42;;;;;;;16.25;5.50;;;11.90;99.90;;;;;;5137317;27;20559;-63
2024/02/09 14:05:09;;;;;;;10.10;4.18;;;12.00;99.90;;;;;;5138564;27;20042;-63
2024/02/09 14:07:38;;;;;;;8.95;4.60;;;11.90;99.90;;;;;;5137486;27;20840;-64
2024/02/09 14:10:14;;;;;;;9.32;5.10;;;12.00;99.90;;;;;;5138731;27;20037;-64
2024/02/09 14:12:40;;;;;;;11.13;5.03;;;12.00;99.90;;;;;;5139617;27;20465;-65
2024/02/09 14:15:08;;;;;;;13.68;4.68;;;12.00;99.90;;;;;;5138877;27;20698;-64
2024/02/09 14:17:35;;;;;;;12.63;5.03;;;12.00;99.90;;;;;;5138488;27;20042;-64
2024/02/09 14:20:05;;;;;;;9.73;5.57;;;11.90;99.90;;;;;;5122914;27;20803;-65
2024/02/09 14:22:31;;;;;;;10.98;4.93;;;12.00;99.90;;;;;;5141842;27;20035;-65
2024/02/09 14:24:58;;;;;;;7.25;5.18;;;11.90;99.90;;;;;;5143143;27;20167;-64
2024/02/09 14:27:25;;;;;;;9.05;5.13;;;11.90;99.90;;;;;;5142599;27;20053;-64
2024/02/09 14:29:54;;;;;;;8.35;5.15;;;11.90;99.90;;;;;;5143077;27;20113;-64
2024/02/09 14:32:22;;;;;;;10.57;5.63;;;11.70;99.90;;;;;;5142132;27;20039;-64
2024/02/09 14:34:48;;;;;;;8.77;4.35;;;11.90;99.90;;;;;;5124654;27;20448;-65
2024/02/09 14:37:13;;;;;;;6.50;3.78;;;11.80;99.90;;;;;;5123640;27;20070;-64